Time;durP1;ratioP1;P1;durP2;ratioP2;P2;SDS_P1;SDS_P2;PMS_P1;PMS_P2;Temp;Humidity;BMP_temperature;BMP_pressure;BME280_temperature;BME280_humidity;BME280_pressure;Samples;Min_cycle;Max_cycle;Signal;HPM_P1;HPM_P2
2021/12/09 00:01:23;;;;;;;12.13;5.07;;;1.40;99.90;;;;;;4815488;29;20038;-79
2021/12/09 00:03:54;;;;;;;8.83;4.60;;;1.30;99.90;;;;;;4790500;29;20043;-79
2021/12/09 00:06:25;;;;;;;10.20;4.53;;;1.30;99.90;;;;;;4778470;29;20051;-80
2021/12/09 00:08:53;;;;;;;8.30;3.70;;;1.30;99.90;;;;;;4766590;29;20055;-80
2021/12/09 00:11:20;;;;;;;8.23;4.07;;;1.30;99.90;;;;;;4809771;29;20054;-79
2021/12/09 00:13:47;;;;;;;7.87;2.97;;;1.30;99.90;;;;;;4765863;29;20046;-79
2021/12/09 00:16:14;;;;;;;6.37;3.23;;;1.20;99.90;;;;;;4783201;29;20043;-78
2021/12/09 00:18:40;;;;;;;9.37;3.80;;;1.20;99.90;;;;;;4763160;29;20042;-78
2021/12/09 00:21:07;;;;;;;4.63;2.57;;;1.20;99.90;;;;;;4765928;29;20069;-80
2021/12/09 00:23:33;;;;;;;7.87;3.83;;;1.10;99.90;;;;;;4791404;29;20043;-80
2021/12/09 00:26:00;;;;;;;5.77;3.30;;;1.10;99.90;;;;;;4760781;29;20050;-80
2021/12/09 00:28:26;;;;;;;8.17;3.73;;;1.10;99.90;;;;;;4780487;29;20065;-81
2021/12/09 00:30:53;;;;;;;6.80;3.77;;;1.10;99.90;;;;;;4780742;29;20040;-81
2021/12/09 00:33:19;;;;;;;7.10;3.90;;;1.10;99.90;;;;;;4800150;29;20533;-80
2021/12/09 00:35:58;;;;;;;5.40;3.37;;;1.00;99.90;;;;;;4793970;29;20035;-80
2021/12/09 00:38:43;;;;;;;6.63;3.50;;;1.00;99.90;;;;;;4789931;29;20051;-80
2021/12/09 00:41:12;;;;;;;7.10;3.03;;;1.00;99.90;;;;;;4813675;29;20507;-80
2021/12/09 00:43:40;;;;;;;4.97;2.67;;;1.00;99.90;;;;;;4778421;29;20412;-80
2021/12/09 00:46:08;;;;;;;6.07;3.63;;;1.00;99.90;;;;;;4781480;29;20031;-80
2021/12/09 00:48:35;;;;;;;6.13;3.17;;;1.00;99.90;;;;;;4746808;29;20058;-80
2021/12/09 00:51:04;;;;;;;7.17;3.10;;;1.00;99.90;;;;;;4799184;29;20047;-80
2021/12/09 00:53:31;;;;;;;6.73;3.40;;;0.90;99.90;;;;;;4748895;29;20046;-80
2021/12/09 00:55:58;;;;;;;6.57;3.10;;;0.90;99.90;;;;;;4782085;29;20142;-80
2021/12/09 00:58:25;;;;;;;8.07;3.37;;;0.90;99.90;;;;;;4763708;29;20073;-80
2021/12/09 01:00:51;;;;;;;5.70;2.60;;;0.90;99.90;;;;;;4801855;29;20050;-80
2021/12/09 01:03:18;;;;;;;7.47;3.03;;;0.90;99.90;;;;;;4798601;29;20057;-80
2021/12/09 01:05:45;;;;;;;7.10;3.50;;;0.90;99.90;;;;;;4786103;29;20054;-79
2021/12/09 01:08:12;;;;;;;5.33;3.30;;;0.90;99.90;;;;;;4774968;29;20283;-79
2021/12/09 01:10:40;;;;;;;8.33;3.70;;;0.90;99.90;;;;;;4813694;29;20042;-79
2021/12/09 01:13:07;;;;;;;7.67;4.67;;;0.90;99.90;;;;;;4745651;29;20051;-80
2021/12/09 01:15:34;;;;;;;10.83;4.60;;;0.90;99.90;;;;;;4796174;29;20051;-78
2021/12/09 01:18:01;;;;;;;7.83;4.03;;;0.90;99.90;;;;;;4730082;29;20047;-78
2021/12/09 01:20:27;;;;;;;9.47;5.57;;;0.90;99.90;;;;;;4795096;29;20042;-79
2021/12/09 01:22:56;;;;;;;9.57;5.03;;;0.90;99.90;;;;;;4795412;29;20057;-78
2021/12/09 01:25:26;;;;;;;12.20;5.13;;;0.90;99.90;;;;;;4775447;29;20069;-78
2021/12/09 01:27:55;;;;;;;9.83;4.77;;;0.90;99.90;;;;;;4789517;29;20058;-78
2021/12/09 01:30:23;;;;;;;7.17;4.43;;;0.90;99.90;;;;;;4796375;29;20104;-78
2021/12/09 01:32:53;;;;;;;8.93;3.73;;;0.90;99.90;;;;;;4792900;29;20034;-78
2021/12/09 01:35:26;;;;;;;5.90;3.43;;;0.90;99.90;;;;;;4791997;29;20042;-78
2021/12/09 01:37:56;;;;;;;7.33;3.40;;;0.90;99.90;;;;;;4791159;29;20083;-78
2021/12/09 01:40:24;;;;;;;9.13;3.97;;;0.80;99.90;;;;;;4780911;29;20423;-78
2021/12/09 01:42:51;;;;;;;6.87;4.43;;;0.80;99.90;;;;;;4777367;29;20047;-78
2021/12/09 01:45:18;;;;;;;8.90;4.87;;;0.80;99.90;;;;;;4792544;29;20502;-78
2021/12/09 01:47:45;;;;;;;12.13;6.37;;;0.80;99.90;;;;;;4760969;29;20057;-78
2021/12/09 01:50:13;;;;;;;12.77;6.53;;;0.80;99.90;;;;;;4807469;29;20041;-78
2021/12/09 01:52:40;;;;;;;17.90;9.00;;;0.80;99.90;;;;;;4794314;29;20038;-78
2021/12/09 01:55:11;;;;;;;15.10;6.43;;;0.80;99.90;;;;;;4776844;29;20391;-78
2021/12/09 01:57:38;;;;;;;10.67;5.83;;;0.80;99.90;;;;;;4811098;29;20045;-78
2021/12/09 02:00:08;;;;;;;8.17;4.63;;;0.80;99.90;;;;;;4777184;29;20062;-78
2021/12/09 02:02:35;;;;;;;7.53;4.47;;;0.80;99.90;;;;;;4779157;29;20497;-78
2021/12/09 02:05:01;;;;;;;7.40;3.73;;;0.80;99.90;;;;;;4777374;29;20045;-78
2021/12/09 02:07:31;;;;;;;6.60;3.60;;;0.70;99.90;;;;;;4774701;29;20396;-78
2021/12/09 02:09:57;;;;;;;7.23;3.47;;;0.70;99.90;;;;;;4767841;29;20043;-78
2021/12/09 02:12:24;;;;;;;5.40;3.57;;;0.70;99.90;;;;;;4766339;29;20047;-78
2021/12/09 02:14:53;;;;;;;6.67;3.30;;;0.70;99.90;;;;;;4792837;29;20041;-78
2021/12/09 02:17:19;;;;;;;8.90;3.83;;;0.60;99.90;;;;;;4782124;29;20047;-78
2021/12/09 02:19:48;;;;;;;6.50;3.00;;;0.70;99.90;;;;;;4762238;29;20041;-78
2021/12/09 02:22:15;;;;;;;6.40;3.40;;;0.70;99.90;;;;;;4752360;29;20392;-78
2021/12/09 02:24:41;;;;;;;5.60;3.63;;;0.70;99.90;;;;;;4787900;29;20043;-78
2021/12/09 02:27:11;;;;;;;8.50;3.70;;;0.60;99.90;;;;;;4793693;29;20055;-78
2021/12/09 02:29:41;;;;;;;8.77;4.77;;;0.70;99.90;;;;;;4780012;29;20050;-78
2021/12/09 02:32:07;;;;;;;9.43;4.93;;;0.70;99.90;;;;;;4777490;29;20348;-78
2021/12/09 02:34:34;;;;;;;10.40;4.50;;;0.70;99.90;;;;;;4811585;29;20039;-78
2021/12/09 02:37:03;;;;;;;9.80;5.20;;;0.70;99.90;;;;;;4765455;29;20043;-78
2021/12/09 02:39:30;;;;;;;10.13;5.97;;;0.70;99.90;;;;;;4777580;29;20768;-78
2021/12/09 02:41:57;;;;;;;10.03;4.73;;;0.70;99.90;;;;;;4777345;29;20059;-78
2021/12/09 02:44:24;;;;;;;6.73;4.40;;;0.70;99.90;;;;;;4790721;29;20038;-78
2021/12/09 02:46:53;;;;;;;7.23;4.20;;;0.70;99.90;;;;;;4776689;29;20047;-78
2021/12/09 02:49:22;;;;;;;7.90;4.20;;;0.70;99.90;;;;;;4794547;29;20387;-78
2021/12/09 02:51:51;;;;;;;8.50;2.87;;;0.60;99.90;;;;;;4788925;29;20058;-78
2021/12/09 02:54:19;;;;;;;4.87;2.90;;;0.60;99.90;;;;;;4809564;29;20045;-78
2021/12/09 02:56:48;;;;;;;6.97;3.27;;;0.50;99.90;;;;;;4761217;29;20050;-79
2021/12/09 02:59:15;;;;;;;6.40;2.83;;;0.50;99.90;;;;;;4779654;29;20069;-78
2021/12/09 03:02:00;;;;;;;5.37;3.20;;;0.50;99.90;;;;;;4769678;29;20067;-78
2021/12/09 03:04:36;;;;;;;3.77;2.47;;;0.50;99.90;;;;;;4772291;29;20037;-78
2021/12/09 03:07:05;;;;;;;6.57;2.97;;;0.50;99.90;;;;;;4784955;29;20043;-78
2021/12/09 03:09:32;;;;;;;5.13;3.27;;;0.40;99.90;;;;;;4764484;29;20046;-78
2021/12/09 03:12:04;;;;;;;5.50;3.23;;;0.40;99.90;;;;;;4781840;29;20043;-78
2021/12/09 03:14:31;;;;;;;5.22;2.97;;;0.40;99.90;;;;;;4797891;29;20034;-78
2021/12/09 03:16:57;;;;;;;5.40;2.83;;;0.40;99.90;;;;;;4803388;29;20046;-78
2021/12/09 03:19:24;;;;;;;6.47;2.83;;;0.40;99.90;;;;;;4784484;29;20392;-79
2021/12/09 03:21:52;;;;;;;5.77;3.37;;;0.40;99.90;;;;;;4784066;29;20047;-79
2021/12/09 03:24:19;;;;;;;7.87;3.13;;;0.40;99.90;;;;;;4783145;29;20048;-79
2021/12/09 03:26:54;;;;;;;5.13;2.83;;;0.40;99.90;;;;;;4783470;29;20047;-79
2021/12/09 03:29:23;;;;;;;6.50;3.57;;;0.40;99.90;;;;;;4794964;29;20043;-78
2021/12/09 03:31:52;;;;;;;5.50;2.80;;;0.40;99.90;;;;;;4769258;29;20072;-80
2021/12/09 03:34:24;;;;;;;8.90;3.40;;;0.30;99.90;;;;;;4798620;29;20047;-80
2021/12/09 03:36:51;;;;;;;7.13;3.78;;;0.30;99.90;;;;;;4782391;29;20042;-80
2021/12/09 03:39:20;;;;;;;7.00;4.20;;;0.30;99.90;;;;;;4775550;29;20039;-80
2021/12/09 03:41:51;;;;;;;9.83;4.00;;;0.40;99.90;;;;;;4803162;29;20402;-80
2021/12/09 03:44:19;;;;;;;8.70;4.30;;;0.40;99.90;;;;;;4786712;29;20038;-80
2021/12/09 03:46:46;;;;;;;7.47;3.83;;;0.40;99.90;;;;;;4801558;29;20057;-78
2021/12/09 03:49:13;;;;;;;9.77;4.07;;;0.40;99.90;;;;;;4763288;29;20372;-78
2021/12/09 03:51:39;;;;;;;6.97;3.33;;;0.40;99.90;;;;;;4777850;29;20050;-79
2021/12/09 03:54:08;;;;;;;6.53;4.10;;;0.40;99.90;;;;;;4768694;29;20045;-78
2021/12/09 03:56:37;;;;;;;6.53;3.17;;;0.40;99.90;;;;;;4795233;29;20038;-78
2021/12/09 03:59:06;;;;;;;7.17;3.13;;;0.30;99.90;;;;;;4796730;29;20038;-78
2021/12/09 04:01:34;;;;;;;5.30;2.83;;;0.30;99.90;;;;;;4799468;29;20045;-78
2021/12/09 04:04:00;;;;;;;8.53;4.47;;;0.40;99.90;;;;;;4765039;29;20054;-78
2021/12/09 04:06:29;;;;;;;7.00;4.43;;;0.30;99.90;;;;;;4758898;29;20408;-78
2021/12/09 04:08:57;;;;;;;10.47;4.30;;;0.30;99.90;;;;;;4751064;29;20061;-78
2021/12/09 04:11:24;;;;;;;7.83;4.50;;;0.40;99.90;;;;;;4756597;29;20050;-78
2021/12/09 04:13:51;;;;;;;8.93;4.67;;;0.30;99.90;;;;;;4767897;29;20051;-78
2021/12/09 04:16:17;;;;;;;7.93;4.37;;;0.30;99.90;;;;;;4792293;29;20034;-79
2021/12/09 04:18:47;;;;;;;7.07;3.50;;;0.30;99.90;;;;;;4793044;29;20050;-78
2021/12/09 04:21:14;;;;;;;7.27;3.50;;;0.30;99.90;;;;;;4796785;29;20062;-78
2021/12/09 04:23:41;;;;;;;6.90;3.27;;;0.30;99.90;;;;;;4785749;29;20057;-78
2021/12/09 04:26:08;;;;;;;5.77;2.87;;;0.30;99.90;;;;;;4798137;29;20085;-78
2021/12/09 04:28:36;;;;;;;6.33;2.80;;;0.30;99.90;;;;;;4796298;29;20411;-78
2021/12/09 04:31:03;;;;;;;7.97;3.17;;;0.20;99.90;;;;;;4799269;29;20786;-79
2021/12/09 04:33:30;;;;;;;5.97;2.63;;;0.20;99.90;;;;;;4816492;29;20391;-80
2021/12/09 04:35:57;;;;;;;6.53;2.97;;;0.20;99.90;;;;;;4791778;29;20050;-80
2021/12/09 04:38:25;;;;;;;6.17;3.60;;;0.20;99.90;;;;;;4792160;29;20042;-80
2021/12/09 04:40:51;;;;;;;7.13;3.40;;;0.20;99.90;;;;;;4816075;29;20051;-80
2021/12/09 04:43:19;;;;;;;7.63;3.10;;;0.10;99.90;;;;;;4778895;29;20046;-80
2021/12/09 04:45:46;;;;;;;9.13;3.57;;;0.10;99.90;;;;;;4815577;29;20039;-80
2021/12/09 04:48:12;;;;;;;5.83;2.67;;;0.20;99.90;;;;;;4795404;29;20404;-80
2021/12/09 04:50:42;;;;;;;10.80;4.13;;;0.10;99.90;;;;;;4767446;29;20047;-80
2021/12/09 04:53:10;;;;;;;7.03;3.83;;;0.10;99.90;;;;;;4814591;29;20031;-80
2021/12/09 04:55:37;;;;;;;12.17;6.30;;;0.10;99.90;;;;;;4792442;29;20495;-80
2021/12/09 04:58:07;;;;;;;10.27;6.27;;;0.10;99.90;;;;;;4807179;29;20038;-80
2021/12/09 05:00:37;;;;;;;15.70;6.77;;;0.20;99.90;;;;;;4771175;29;20136;-81
2021/12/09 05:03:09;;;;;;;12.73;6.43;;;0.20;99.90;;;;;;4763722;29;20034;-80
2021/12/09 05:06:06;;;;;;;9.87;5.43;;;0.20;99.90;;;;;;4789241;29;20500;-79
2021/12/09 05:08:47;;;;;;;8.13;5.00;;;0.20;99.90;;;;;;4782307;29;20499;-80
2021/12/09 05:12:02;;;;;;;11.27;4.77;;;0.20;99.90;;;;;;4799291;29;20059;-80
2021/12/09 05:14:07;;;;;;;5.73;4.17;;;0.20;99.90;;;;;;4786893;29;20711;-80
2021/12/09 05:16:34;;;;;;;9.60;4.63;;;0.20;99.90;;;;;;4782635;29;20115;-78
2021/12/09 05:19:01;;;;;;;8.63;3.70;;;0.10;99.90;;;;;;4763894;29;20043;-79
2021/12/09 05:21:53;;;;;;;;;;;;;;;;;;;;;
2021/12/09 05:24:20;;;;;;;4.72;2.80;;;0.10;99.90;;;;;;4809981;29;20039;-80
2021/12/09 05:26:51;;;;;;;4.73;2.53;;;0.10;99.90;;;;;;4815261;29;20491;-80
2021/12/09 05:29:21;;;;;;;6.83;3.57;;;0.10;99.90;;;;;;4768633;29;20039;-80
2021/12/09 05:34:37;;;;;;;5.07;3.30;;;0.10;99.90;;;;;;4816479;29;20054;-80
2021/12/09 05:37:09;;;;;;;7.03;3.10;;;0.10;99.90;;;;;;4794557;29;20066;-80
2021/12/09 05:39:39;;;;;;;10.85;3.55;;;0.10;99.90;;;;;;4799072;29;20684;-81
2021/12/09 05:42:07;;;;;;;6.00;3.07;;;0.00;99.90;;;;;;4792704;29;20043;-80
2021/12/09 05:44:34;;;;;;;5.73;3.63;;;0.00;99.90;;;;;;4795578;29;20054;-80
2021/12/09 05:47:02;;;;;;;8.60;3.57;;;0.00;99.90;;;;;;4782714;29;20054;-80
2021/12/09 05:49:29;;;;;;;6.10;2.90;;;0.00;99.90;;;;;;4768229;29;20517;-80
2021/12/09 05:51:56;;;;;;;5.83;3.03;;;0.10;99.90;;;;;;4798468;29;20042;-80
2021/12/09 05:54:22;;;;;;;9.27;3.13;;;0.00;99.90;;;;;;4796260;29;20502;-81
2021/12/09 05:56:50;;;;;;;7.10;2.80;;;0.00;99.90;;;;;;4759789;29;20043;-80
2021/12/09 05:59:17;;;;;;;8.27;3.03;;;0.00;99.90;;;;;;4783953;29;20046;-81
2021/12/09 06:01:44;;;;;;;7.20;3.40;;;0.00;99.90;;;;;;4797176;29;20035;-81
2021/12/09 06:04:11;;;;;;;5.80;3.13;;;0.00;99.90;;;;;;4779815;29;20487;-81
2021/12/09 06:06:39;;;;;;;5.03;2.80;;;0.00;99.90;;;;;;4784220;29;20050;-81
2021/12/09 06:09:07;;;;;;;5.83;3.10;;;0.10;99.90;;;;;;4800956;29;20043;-81
2021/12/09 06:11:35;;;;;;;7.37;3.20;;;0.00;99.90;;;;;;4776900;29;20055;-80
2021/12/09 06:14:03;;;;;;;4.47;2.23;;;0.10;99.90;;;;;;4763829;29;20038;-80
2021/12/09 06:16:29;;;;;;;6.07;2.63;;;0.10;99.90;;;;;;4796978;29;20514;-80
2021/12/09 06:18:59;;;;;;;9.27;2.57;;;0.10;99.90;;;;;;4777426;29;20042;-81
2021/12/09 06:21:27;;;;;;;5.83;2.60;;;0.10;99.90;;;;;;4756200;29;20046;-80
2021/12/09 06:23:55;;;;;;;4.87;2.30;;;0.10;99.90;;;;;;4783152;29;20046;-81
2021/12/09 06:26:22;;;;;;;8.77;2.93;;;0.10;99.90;;;;;;4796532;29;20050;-81
2021/12/09 06:28:55;;;;;;;10.17;3.40;;;0.10;99.90;;;;;;4765526;29;20043;-78
2021/12/09 06:31:21;;;;;;;7.20;3.55;;;0.10;99.90;;;;;;4775189;29;20051;-77
2021/12/09 06:33:51;;;;;;;9.60;2.83;;;0.10;99.90;;;;;;4795419;29;20436;-80
2021/12/09 06:36:18;;;;;;;7.50;3.37;;;0.10;99.90;;;;;;4801983;29;20065;-79
2021/12/09 06:38:45;;;;;;;5.63;3.03;;;0.10;99.90;;;;;;4786220;29;20041;-79
2021/12/09 06:41:12;;;;;;;9.03;3.00;;;0.10;99.90;;;;;;4769458;29;20034;-80
2021/12/09 06:43:40;;;;;;;8.60;3.97;;;0.10;99.90;;;;;;4757132;29;20050;-80
2021/12/09 06:46:09;;;;;;;9.33;3.67;;;0.10;99.90;;;;;;4786203;29;20046;-79
2021/12/09 06:48:36;;;;;;;7.40;2.83;;;0.10;99.90;;;;;;4782014;29;20042;-77
2021/12/09 06:51:04;;;;;;;6.77;2.70;;;0.10;99.90;;;;;;4784560;29;20039;-77
2021/12/09 06:53:31;;;;;;;5.17;3.00;;;0.10;99.90;;;;;;4783956;29;20042;-79
2021/12/09 06:55:57;;;;;;;8.07;2.67;;;0.10;99.90;;;;;;4796914;29;20514;-78
2021/12/09 06:58:25;;;;;;;6.97;3.37;;;0.10;99.90;;;;;;4779952;29;20412;-78
2021/12/09 07:00:54;;;;;;;5.50;2.73;;;0.10;99.90;;;;;;4779652;29;21409;-78
2021/12/09 07:03:22;;;;;;;8.20;2.70;;;0.00;99.90;;;;;;4765036;29;20715;-78
2021/12/09 07:05:50;;;;;;;6.57;2.53;;;0.00;99.90;;;;;;4785009;29;20065;-79
2021/12/09 07:08:18;;;;;;;6.30;2.63;;;0.10;99.90;;;;;;4764348;29;20062;-78
2021/12/09 07:10:45;;;;;;;5.73;1.97;;;0.00;99.90;;;;;;4797181;29;20034;-80
2021/12/09 07:13:12;;;;;;;8.30;2.70;;;0.10;99.90;;;;;;4798627;29;21396;-80
2021/12/09 07:15:39;;;;;;;5.97;2.83;;;0.10;99.90;;;;;;4779468;29;20045;-80
2021/12/09 07:18:06;;;;;;;5.53;2.60;;;0.10;99.90;;;;;;4766590;29;20050;-83
2021/12/09 07:20:33;;;;;;;10.57;3.17;;;0.10;99.90;;;;;;4770998;29;20403;-83
2021/12/09 07:23:00;;;;;;;7.87;2.90;;;0.10;99.90;;;;;;4784037;29;20059;-82
2021/12/09 07:25:29;;;;;;;7.93;2.70;;;0.10;99.90;;;;;;4777243;29;20146;-83
2021/12/09 07:27:55;;;;;;;7.60;2.77;;;0.10;99.90;;;;;;4789697;29;20035;-83
2021/12/09 07:30:24;;;;;;;6.27;3.17;;;0.10;99.90;;;;;;4785573;29;20050;-80
2021/12/09 07:32:51;;;;;;;5.57;2.53;;;0.10;99.90;;;;;;4783017;29;20066;-81
2021/12/09 07:35:18;;;;;;;8.37;2.80;;;0.10;99.90;;;;;;4796436;29;20030;-81
2021/12/09 07:37:45;;;;;;;4.10;2.30;;;0.10;99.90;;;;;;4798853;29;20523;-83
2021/12/09 07:40:16;;;;;;;7.47;3.20;;;0.10;99.90;;;;;;4797535;29;20033;-81
2021/12/09 07:42:42;;;;;;;5.77;3.20;;;0.10;99.90;;;;;;4782938;29;20039;-80
2021/12/09 07:45:10;;;;;;;11.00;4.63;;;0.10;99.90;;;;;;4795697;29;20409;-79
2021/12/09 07:47:37;;;;;;;11.20;4.03;;;0.10;99.90;;;;;;4764795;29;20046;-79
2021/12/09 07:50:07;;;;;;;11.87;5.37;;;0.10;99.90;;;;;;4769319;29;20846;-80
2021/12/09 07:52:34;;;;;;;12.90;5.47;;;0.10;99.90;;;;;;4801304;29;20046;-79
2021/12/09 07:55:01;;;;;;;17.07;5.70;;;0.10;99.90;;;;;;4785446;29;20046;-78
2021/12/09 07:57:28;;;;;;;12.23;5.40;;;0.20;99.90;;;;;;4769942;29;20043;-79
2021/12/09 07:59:55;;;;;;;7.97;4.07;;;0.20;99.90;;;;;;4770416;29;20050;-78
2021/12/09 08:02:21;;;;;;;11.40;4.50;;;0.20;99.90;;;;;;4780407;29;20049;-78
2021/12/09 08:04:47;;;;;;;11.80;4.00;;;0.30;99.90;;;;;;4801318;29;20038;-79
2021/12/09 08:07:14;;;;;;;9.23;3.97;;;0.30;99.90;;;;;;4783756;29;20054;-79
2021/12/09 08:09:40;;;;;;;10.53;3.93;;;0.30;99.90;;;;;;4782289;29;20132;-78
2021/12/09 08:12:07;;;;;;;11.23;4.97;;;0.40;99.90;;;;;;4796849;29;20062;-79
2021/12/09 08:14:33;;;;;;;10.50;4.50;;;0.40;99.90;;;;;;4770567;29;20513;-80
2021/12/09 08:17:33;;;;;;;12.10;4.33;;;0.40;99.90;;;;;;4773902;29;20056;-80
2021/12/09 08:19:59;;;;;;;8.40;4.07;;;0.40;99.90;;;;;;4790423;29;20491;-80
2021/12/09 08:22:26;;;;;;;7.87;4.83;;;0.50;99.90;;;;;;4777753;29;20054;-80
2021/12/09 08:24:55;;;;;;;6.10;3.87;;;0.50;99.90;;;;;;4766831;29;20039;-80
2021/12/09 08:27:22;;;;;;;7.97;3.37;;;0.50;99.90;;;;;;4784232;29;20069;-79
2021/12/09 08:29:49;;;;;;;9.37;3.70;;;0.60;99.90;;;;;;4776975;29;20057;-79
2021/12/09 08:32:15;;;;;;;6.43;3.40;;;0.60;99.90;;;;;;4775568;29;20049;-79
2021/12/09 08:34:42;;;;;;;6.97;2.73;;;0.70;99.90;;;;;;4765550;29;20042;-79
2021/12/09 08:37:08;;;;;;;8.83;3.47;;;0.70;99.90;;;;;;4765020;29;20046;-79
2021/12/09 08:39:35;;;;;;;11.50;3.60;;;0.70;99.90;;;;;;4766023;29;20057;-79
2021/12/09 08:42:02;;;;;;;8.17;3.33;;;0.80;99.90;;;;;;4765540;29;20691;-79
2021/12/09 08:44:28;;;;;;;6.93;3.03;;;0.90;99.90;;;;;;4813687;29;20360;-79
2021/12/09 08:46:55;;;;;;;6.80;3.30;;;0.80;99.90;;;;;;4787700;29;20495;-80
2021/12/09 08:49:21;;;;;;;8.10;3.77;;;0.90;99.90;;;;;;4764606;29;20065;-79
2021/12/09 08:51:49;;;;;;;5.43;2.70;;;0.90;99.90;;;;;;4814077;29;20050;-79
2021/12/09 08:54:15;;;;;;;11.73;3.90;;;1.10;99.90;;;;;;4765758;29;20042;-79
2021/12/09 08:56:44;;;;;;;20.00;7.67;;;1.20;99.90;;;;;;4795815;29;20057;-80
2021/12/09 08:59:10;;;;;;;15.00;4.67;;;1.30;99.90;;;;;;4777589;29;20035;-78
2021/12/09 09:01:40;;;;;;;16.13;6.07;;;1.40;99.90;;;;;;4753555;29;20039;-79
2021/12/09 09:04:06;;;;;;;11.23;4.80;;;1.50;99.90;;;;;;4759248;29;20047;-77
2021/12/09 09:06:33;;;;;;;8.00;3.80;;;1.60;99.90;;;;;;4765959;29;20464;-78
2021/12/09 09:09:00;;;;;;;15.50;5.33;;;1.60;99.90;;;;;;4764251;29;21486;-79
2021/12/09 09:11:27;;;;;;;9.93;3.43;;;1.70;99.90;;;;;;4783204;29;20050;-79
2021/12/09 09:13:53;;;;;;;11.43;4.43;;;1.80;99.90;;;;;;4764484;29;20043;-79
2021/12/09 09:16:20;;;;;;;16.53;7.07;;;1.80;99.90;;;;;;4782206;29;20047;-78
2021/12/09 09:18:46;;;;;;;16.87;6.20;;;1.90;99.90;;;;;;4767302;29;20042;-78
2021/12/09 09:21:13;;;;;;;22.33;7.97;;;2.00;99.90;;;;;;4798963;29;20050;-78
2021/12/09 09:23:39;;;;;;;16.83;6.03;;;2.10;99.90;;;;;;4781642;29;20046;-78
2021/12/09 09:26:06;;;;;;;19.67;6.00;;;2.20;99.90;;;;;;4780314;29;20063;-77
2021/12/09 09:28:32;;;;;;;11.97;5.90;;;2.30;99.90;;;;;;4806539;29;20042;-77
2021/12/09 09:31:03;;;;;;;12.03;5.10;;;2.40;99.90;;;;;;4791183;29;20577;-76
2021/12/09 09:33:31;;;;;;;13.33;5.33;;;2.40;99.90;;;;;;4791182;29;20387;-77
2021/12/09 09:35:58;;;;;;;12.47;4.63;;;2.50;99.90;;;;;;4791230;29;20035;-77
2021/12/09 09:38:25;;;;;;;14.17;5.80;;;2.60;99.90;;;;;;4781883;29;20031;-77
2021/12/09 09:41:09;;;;;;;11.80;5.43;;;2.60;99.90;;;;;;4774772;29;20803;-77
2021/12/09 09:46:19;;;;;;;13.97;5.07;;;2.70;99.90;;;;;;4793501;29;20042;-77
2021/12/09 09:48:47;;;;;;;11.13;4.80;;;2.80;99.90;;;;;;4761774;29;20042;-77
2021/12/09 09:51:15;;;;;;;13.77;5.00;;;2.80;99.90;;;;;;4792303;29;20054;-77
2021/12/09 09:53:42;;;;;;;10.10;4.30;;;2.80;99.90;;;;;;4775796;29;20050;-77
2021/12/09 09:56:15;;;;;;;9.73;4.27;;;2.90;99.90;;;;;;4781609;29;20039;-77
2021/12/09 09:58:44;;;;;;;13.13;6.17;;;2.90;99.90;;;;;;4749645;29;20045;-77
2021/12/09 10:01:12;;;;;;;12.50;5.20;;;3.00;99.90;;;;;;4789142;29;20043;-76
2021/12/09 10:03:44;;;;;;;17.63;6.33;;;3.00;99.90;;;;;;4791034;29;20038;-76
2021/12/09 10:06:12;;;;;;;15.13;6.37;;;3.00;99.90;;;;;;4790013;29;20529;-76
2021/12/09 10:08:39;;;;;;;13.57;6.23;;;3.10;99.90;;;;;;4767383;29;20051;-76
2021/12/09 10:11:06;;;;;;;15.53;7.43;;;3.10;99.90;;;;;;4776147;29;20061;-76
2021/12/09 10:13:36;;;;;;;15.43;6.83;;;3.20;99.90;;;;;;4773587;29;20373;-79
2021/12/09 10:16:05;;;;;;;10.57;5.33;;;3.20;99.90;;;;;;4788127;29;20395;-77
2021/12/09 10:18:43;;;;;;;14.53;7.70;;;3.20;99.90;;;;;;4777141;29;20039;-77
2021/12/09 10:21:13;;;;;;;18.17;8.37;;;3.30;99.90;;;;;;4763366;29;20039;-78
2021/12/09 10:23:45;;;;;;;20.37;9.13;;;3.30;99.90;;;;;;4796234;29;20030;-78
2021/12/09 10:26:13;;;;;;;;;;;3.30;99.90;;;;;;4794616;29;20050;-78
2021/12/09 10:28:46;;;;;;;16.20;6.50;;;3.40;99.90;;;;;;4791673;29;19924;-77
2021/12/09 10:31:15;;;;;;;14.35;5.95;;;3.40;99.90;;;;;;4803433;29;20061;-78
2021/12/09 10:34:27;;;;;;;13.80;6.10;;;3.50;99.90;;;;;;4775099;29;20043;-77
2021/12/09 10:37:02;;;;;;;12.60;6.30;;;3.60;99.90;;;;;;4771237;29;20031;-77
2021/12/09 10:39:41;;;;;;;9.47;5.57;;;3.60;99.90;;;;;;4771379;29;20041;-78
2021/12/09 10:42:16;;;;;;;10.97;4.93;;;3.70;99.90;;;;;;4784289;29;20035;-78
2021/12/09 10:44:48;;;;;;;11.32;5.38;;;3.70;99.90;;;;;;4757682;29;20396;-77
2021/12/09 10:47:55;;;;;;;11.37;6.17;;;3.80;99.90;;;;;;4786292;29;20146;-77
2021/12/09 10:50:35;;;;;;;12.80;6.57;;;3.80;99.90;;;;;;4786851;29;20293;-77
2021/12/09 10:55:54;;;;;;;11.32;6.10;;;3.80;99.90;;;;;;4793585;29;20054;-77
2021/12/09 10:58:25;;;;;;;13.10;6.53;;;3.80;99.90;;;;;;4805835;29;20043;-77
2021/12/09 11:00:53;;;;;;;11.70;5.90;;;3.80;99.90;;;;;;4788134;29;20068;-78
2021/12/09 11:03:41;;;;;;;15.17;6.77;;;3.80;99.90;;;;;;4761189;29;20499;-78
2021/12/09 11:06:20;;;;;;;16.40;8.43;;;3.90;99.90;;;;;;4794405;29;20380;-78
2021/12/09 11:08:55;;;;;;;18.92;8.80;;;3.90;99.90;;;;;;4789079;29;20410;-77
2021/12/09 11:11:34;;;;;;;17.17;8.90;;;3.90;99.90;;;;;;4786114;29;20395;-78
2021/12/09 11:14:27;;;;;;;20.10;9.80;;;3.90;99.90;;;;;;4794539;29;20053;-78
2021/12/09 11:17:02;;;;;;;;;;;3.80;99.90;;;;;;4790472;29;20047;-77
2021/12/09 11:22:02;;;;;;;20.90;12.40;;;3.90;99.90;;;;;;4768804;29;20054;-76
2021/12/09 11:24:34;;;;;;;24.90;12.13;;;3.90;99.90;;;;;;4791886;29;20038;-77
2021/12/09 11:27:07;;;;;;;19.98;11.57;;;3.90;99.90;;;;;;4795673;29;20479;-78
2021/12/09 11:29:42;;;;;;;;;;;3.90;99.90;;;;;;4780387;29;20049;-75
2021/12/09 11:35:14;;;;;;;18.13;10.75;;;4.00;99.90;;;;;;4786144;29;20057;-76
2021/12/09 11:37:51;;;;;;;23.58;13.55;;;4.00;99.90;;;;;;4777414;29;20046;-76
2021/12/09 11:40:43;;;;;;;24.48;13.45;;;4.00;99.90;;;;;;4792517;29;20030;-76
2021/12/09 11:43:13;;;;;;;21.65;12.10;;;4.10;99.90;;;;;;4762963;29;20569;-76
2021/12/09 11:45:43;;;;;;;20.60;10.90;;;4.10;99.90;;;;;;4763850;29;20039;-76
2021/12/09 11:48:11;;;;;;;21.35;13.10;;;4.20;99.90;;;;;;4781640;29;20049;-76
2021/12/09 11:50:43;;;;;;;27.55;12.13;;;4.20;99.90;;;;;;4767903;29;20045;-76
2021/12/09 11:53:14;;;;;;;21.53;13.53;;;4.30;99.90;;;;;;4767794;29;20050;-76
2021/12/09 11:55:45;;;;;;;25.45;14.27;;;4.30;99.90;;;;;;4811561;29;20039;-76
2021/12/09 12:07:32;;;;;;;25.83;12.55;;;4.40;99.90;;;;;;4776812;29;20503;-76
2021/12/09 12:12:58;;;;;;;35.55;17.15;;;4.50;99.90;;;;;;4776561;29;20042;-78
2021/12/09 12:26:49;;;;;;;21.40;14.60;;;4.70;99.90;;;;;;4773547;29;20058;-78
2021/12/09 12:35:08;;;;;;;18.70;13.60;;;4.80;99.90;;;;;;4792373;29;20050;-79
2021/12/09 12:37:45;;;;;;;27.02;13.68;;;4.80;99.90;;;;;;4814500;29;20050;-78
2021/12/09 12:40:14;;;;;;;22.23;14.25;;;4.90;99.90;;;;;;4798375;29;20030;-79
2021/12/09 12:42:53;;;;;;;20.80;14.13;;;4.80;99.90;;;;;;4782716;29;20050;-78
2021/12/09 12:45:24;;;;;;;20.42;13.38;;;4.80;99.90;;;;;;4767339;29;20039;-82
2021/12/09 12:47:59;;;;;;;28.27;17.97;;;4.80;99.90;;;;;;4775202;29;20049;-79
2021/12/09 12:50:26;;;;;;;22.77;15.15;;;4.80;99.90;;;;;;4787372;29;20044;-79
2021/12/09 12:53:12;;;;;;;21.20;14.63;;;4.90;99.90;;;;;;4792495;29;20049;-79
2021/12/09 12:55:43;;;;;;;26.77;16.90;;;4.90;99.90;;;;;;4795642;29;20054;-79
2021/12/09 12:58:09;;;;;;;23.40;13.90;;;4.90;99.90;;;;;;4760043;29;20466;-78
2021/12/09 13:00:42;;;;;;;20.63;13.05;;;4.90;99.90;;;;;;4766854;29;20392;-78
2021/12/09 13:03:27;;;;;;;21.80;13.70;;;4.90;99.90;;;;;;4754763;29;20053;-78
2021/12/09 13:09:21;;;;;;;17.75;11.43;;;4.80;99.90;;;;;;4786588;29;20054;-80
2021/12/09 13:11:51;;;;;;;16.98;11.35;;;4.90;99.90;;;;;;4771298;29;20050;-78
2021/12/09 13:14:25;;;;;;;23.05;13.00;;;4.80;99.90;;;;;;4779908;29;20047;-77
2021/12/09 13:19:50;;;;;;;16.90;11.80;;;4.90;99.90;;;;;;4786357;29;20046;-77
2021/12/09 13:22:30;;;;;;;17.55;12.10;;;4.90;99.90;;;;;;4760137;29;20049;-77
2021/12/09 13:25:30;;;;;;;19.35;12.38;;;4.80;99.90;;;;;;4792519;29;20039;-77
2021/12/09 13:28:01;;;;;;;18.77;13.60;;;4.90;99.90;;;;;;4787014;29;20031;-77
2021/12/09 13:31:13;;;;;;;21.33;11.70;;;4.90;99.90;;;;;;4811210;29;20034;-76
2021/12/09 13:34:05;;;;;;;16.33;11.38;;;4.90;99.90;;;;;;4774662;29;20050;-77
2021/12/09 13:37:02;;;;;;;14.05;11.68;;;4.80;99.90;;;;;;4736627;29;20504;-77
2021/12/09 13:39:42;;;;;;;14.40;11.25;;;4.80;99.90;;;;;;4783706;29;20049;-78
2021/12/09 13:45:53;;;;;;;17.40;11.00;;;4.80;99.90;;;;;;4774389;29;20045;-78
2021/12/09 13:48:17;;;;;;;16.48;11.65;;;4.80;99.90;;;;;;4775784;29;20483;-78
2021/12/09 13:50:54;;;;;;;15.82;12.32;;;4.80;99.90;;;;;;4789196;29;20042;-77
2021/12/09 13:56:20;;;;;;;14.32;10.52;;;4.80;99.90;;;;;;4752282;29;20046;-78
2021/12/09 13:58:47;;;;;;;19.85;12.35;;;4.80;99.90;;;;;;4782105;29;20042;-78
2021/12/09 14:01:16;;;;;;;19.55;12.10;;;4.80;99.90;;;;;;4760613;29;20055;-78
2021/12/09 14:03:42;;;;;;;16.63;12.27;;;4.90;99.90;;;;;;4776360;29;20042;-78